Time;durP1;ratioP1;P1;durP2;ratioP2;P2;SDS_P1;SDS_P2;PMS_P1;PMS_P2;Temp;Humidity;BMP_temperature;BMP_pressure;BME280_temperature;BME280_humidity;BME280_pressure;Samples;Min_cycle;Max_cycle;Signal;HPM_P1;HPM_P2
2022/01/02 00:02:15;;;;;;;448.70;418.40;;;11.80;99.90;;;;;;5021409;28;20718;-81
2022/01/02 00:04:47;;;;;;;456.90;426.00;;;11.70;99.90;;;;;;5004847;28;20227;-80
2022/01/02 00:07:19;;;;;;;480.47;447.10;;;11.60;99.90;;;;;;5021021;28;20273;-80
2022/01/02 00:09:50;;;;;;;506.57;470.60;;;11.60;99.90;;;;;;5018661;28;20222;-80
2022/01/02 00:12:26;;;;;;;505.50;469.50;;;11.60;99.90;;;;;;5004114;28;20282;-79
2022/01/02 00:14:55;;;;;;;506.57;470.03;;;11.50;99.90;;;;;;5003646;28;20202;-79
2022/01/02 00:17:23;;;;;;;512.27;474.77;;;11.50;99.90;;;;;;4988310;28;20197;-80
2022/01/02 00:19:54;;;;;;;527.50;488.40;;;11.40;99.90;;;;;;5003573;28;20218;-79
2022/01/02 00:22:35;;;;;;;540.93;500.40;;;11.40;99.90;;;;;;5021307;28;20184;-81
2022/01/02 00:25:05;;;;;;;545.87;504.83;;;11.40;99.90;;;;;;5021739;28;20191;-79
2022/01/02 00:27:31;;;;;;;560.43;518.17;;;11.40;99.90;;;;;;5018750;28;20227;-80
2022/01/02 00:29:58;;;;;;;561.90;519.33;;;11.40;99.90;;;;;;5018511;28;20252;-80
2022/01/02 00:32:24;;;;;;;565.30;522.13;;;11.40;99.90;;;;;;5001900;28;20199;-80
2022/01/02 00:34:53;;;;;;;571.23;527.37;;;11.50;99.90;;;;;;5009799;28;20286;-80
2022/01/02 00:37:20;;;;;;;572.80;528.93;;;11.40;99.90;;;;;;5001986;28;20271;-79
2022/01/02 00:39:46;;;;;;;582.13;537.00;;;11.40;99.90;;;;;;5001070;28;20226;-80
2022/01/02 00:42:28;;;;;;;579.63;534.80;;;11.40;99.90;;;;;;4987037;28;20218;-78
2022/01/02 00:45:11;;;;;;;593.57;547.87;;;11.40;99.90;;;;;;5002710;28;20218;-80
2022/01/02 00:47:44;;;;;;;593.00;547.03;;;11.40;99.90;;;;;;5002346;28;20219;-79
2022/01/02 00:50:30;;;;;;;595.20;549.07;;;11.40;99.90;;;;;;5007905;28;20576;-79
2022/01/02 00:52:58;;;;;;;599.60;552.90;;;11.40;99.90;;;;;;5002635;28;20556;-80
2022/01/02 00:55:25;;;;;;;594.27;547.40;;;11.40;99.90;;;;;;5021415;28;20672;-79
2022/01/02 00:58:03;;;;;;;602.57;555.23;;;11.40;99.90;;;;;;5002671;28;20226;-79
2022/01/02 01:00:30;;;;;;;601.73;554.27;;;11.40;99.90;;;;;;5020926;28;20222;-79
2022/01/02 01:02:58;;;;;;;609.27;561.40;;;11.40;99.90;;;;;;4986494;28;20222;-79
2022/01/02 01:05:30;;;;;;;611.03;562.73;;;11.40;99.90;;;;;;5006798;28;20228;-79
2022/01/02 01:07:58;;;;;;;615.27;566.57;;;11.40;99.90;;;;;;5022538;28;20213;-79
2022/01/02 01:10:26;;;;;;;613.60;565.47;;;11.40;99.90;;;;;;5005862;28;20277;-79
2022/01/02 01:12:53;;;;;;;600.13;553.10;;;11.50;99.90;;;;;;5009496;28;20209;-80
2022/01/02 01:15:24;;;;;;;591.13;545.17;;;11.50;99.90;;;;;;5025625;28;20258;-79
2022/01/02 01:17:55;;;;;;;579.80;535.03;;;11.60;99.90;;;;;;5023647;28;20182;-79
2022/01/02 01:20:23;;;;;;;558.63;515.07;;;11.60;99.90;;;;;;4975927;28;20222;-80
2022/01/02 01:22:49;;;;;;;559.63;516.77;;;11.70;99.90;;;;;;5004659;28;20226;-80
2022/01/02 01:25:17;;;;;;;552.50;509.83;;;11.70;99.90;;;;;;5022780;28;20562;-79
2022/01/02 01:27:48;;;;;;;538.20;496.00;;;11.70;99.90;;;;;;4987313;28;20212;-80
2022/01/02 01:30:16;;;;;;;513.67;474.23;;;11.70;99.90;;;;;;5022914;28;20195;-81
2022/01/02 01:32:42;;;;;;;411.03;380.30;;;11.80;99.90;;;;;;5023295;28;21108;-80
2022/01/02 01:35:09;;;;;;;408.30;378.60;;;11.90;99.90;;;;;;5022777;28;20239;-81
2022/01/02 01:37:36;;;;;;;404.00;374.33;;;11.90;99.90;;;;;;5003273;28;20230;-79
2022/01/02 01:40:03;;;;;;;397.77;368.77;;;11.90;99.90;;;;;;4987982;28;20202;-80
2022/01/02 01:42:37;;;;;;;389.67;361.17;;;11.90;99.90;;;;;;5004176;28;20223;-79
2022/01/02 01:47:33;;;;;;;386.13;358.97;;;12.00;99.90;;;;;;5022579;28;20267;-80
2022/01/02 01:50:00;;;;;;;383.37;356.37;;;12.00;99.90;;;;;;5027249;28;20196;-79
2022/01/02 01:52:26;;;;;;;384.27;356.70;;;12.00;99.90;;;;;;5024452;28;20209;-80
2022/01/02 01:54:52;;;;;;;379.27;352.87;;;12.00;99.90;;;;;;5005068;28;20229;-80
2022/01/02 01:57:17;;;;;;;377.90;352.07;;;12.10;99.90;;;;;;5004157;28;20228;-80
2022/01/02 01:59:47;;;;;;;373.60;348.00;;;12.10;99.90;;;;;;5004884;28;20204;-80
2022/01/02 02:02:15;;;;;;;373.53;348.23;;;12.10;99.90;;;;;;5007556;28;20271;-80
2022/01/02 02:04:41;;;;;;;375.37;349.47;;;12.10;99.90;;;;;;5026244;28;20200;-80
2022/01/02 02:07:06;;;;;;;369.57;344.20;;;12.20;99.90;;;;;;5024517;28;20237;-80
2022/01/02 02:09:46;;;;;;;356.67;333.00;;;12.20;99.90;;;;;;4989005;28;20201;-80
2022/01/02 02:12:13;;;;;;;351.97;328.77;;;12.20;99.90;;;;;;4993122;28;20298;-80
2022/01/02 02:14:39;;;;;;;350.60;327.13;;;12.20;99.90;;;;;;4979992;28;20618;-80
2022/01/02 02:17:05;;;;;;;340.30;317.53;;;12.20;99.90;;;;;;5006755;28;20198;-79
2022/01/02 02:19:31;;;;;;;347.00;324.20;;;12.20;99.90;;;;;;4987528;28;20200;-80
2022/01/02 02:21:56;;;;;;;336.47;314.43;;;12.20;99.90;;;;;;5007039;28;20197;-79
2022/01/02 02:24:22;;;;;;;335.03;312.70;;;12.20;99.90;;;;;;4974151;28;20192;-78
2022/01/02 02:26:48;;;;;;;335.23;312.87;;;12.20;99.90;;;;;;5006764;28;20242;-80
2022/01/02 02:29:14;;;;;;;335.20;313.43;;;12.20;99.90;;;;;;4986448;28;20208;-79
2022/01/02 02:31:41;;;;;;;331.07;309.07;;;12.20;99.90;;;;;;4990777;28;20197;-80
2022/01/02 02:34:08;;;;;;;328.50;307.30;;;12.20;99.90;;;;;;5021728;28;20208;-79
2022/01/02 02:36:35;;;;;;;324.67;303.87;;;12.20;99.90;;;;;;5004525;28;20192;-79
2022/01/02 02:39:01;;;;;;;325.53;304.63;;;12.20;99.90;;;;;;4991538;28;20204;-80
2022/01/02 02:41:32;;;;;;;316.77;297.17;;;12.20;99.90;;;;;;5004614;28;20592;-79
2022/01/02 02:44:05;;;;;;;306.70;287.67;;;12.20;99.90;;;;;;5021726;28;20185;-81
2022/01/02 02:49:17;;;;;;;293.77;275.37;;;12.20;99.90;;;;;;5005392;28;20220;-79
2022/01/02 02:54:23;;;;;;;273.37;256.93;;;12.20;99.90;;;;;;5008607;28;20259;-80
2022/01/02 02:56:57;;;;;;;269.03;252.90;;;12.20;99.90;;;;;;5021650;28;20213;-80
2022/01/02 02:59:25;;;;;;;259.43;243.97;;;12.30;99.90;;;;;;5021828;28;20253;-80
2022/01/02 03:01:52;;;;;;;246.57;232.47;;;12.30;99.90;;;;;;5006625;28;20231;-79
2022/01/02 03:04:19;;;;;;;236.47;223.33;;;12.30;99.90;;;;;;5003914;28;20196;-80
2022/01/02 03:06:44;;;;;;;228.30;215.73;;;12.30;99.90;;;;;;5022432;28;20255;-79
2022/01/02 03:09:11;;;;;;;226.10;213.40;;;12.30;99.90;;;;;;5021494;28;20243;-80
2022/01/02 03:11:41;;;;;;;220.33;207.83;;;12.30;99.90;;;;;;5005049;28;20205;-80
2022/01/02 03:14:09;;;;;;;213.03;201.43;;;12.30;99.90;;;;;;4989939;28;20255;-79
2022/01/02 03:16:35;;;;;;;213.77;201.23;;;12.30;99.90;;;;;;5005604;28;20663;-78
2022/01/02 03:19:00;;;;;;;204.47;193.10;;;12.30;99.90;;;;;;4989170;28;20197;-80
2022/01/02 03:21:26;;;;;;;212.67;200.27;;;12.30;99.90;;;;;;5005567;28;20192;-80
2022/01/02 03:23:52;;;;;;;202.00;190.43;;;12.30;99.90;;;;;;5003862;28;20184;-81
2022/01/02 03:26:18;;;;;;;195.70;184.57;;;12.30;99.90;;;;;;5006188;28;20198;-79
2022/01/02 03:28:44;;;;;;;184.93;175.03;;;12.30;99.90;;;;;;5004425;28;20278;-81
2022/01/02 03:31:10;;;;;;;177.97;168.20;;;12.30;99.90;;;;;;5019667;28;20256;-80
2022/01/02 03:33:37;;;;;;;182.50;172.77;;;12.40;99.90;;;;;;4987914;28;20192;-80
2022/01/02 03:36:04;;;;;;;167.73;158.53;;;12.40;99.90;;;;;;5022207;28;20198;-80
2022/01/02 03:38:30;;;;;;;169.50;159.93;;;12.40;99.90;;;;;;5021874;28;20197;-80
2022/01/02 03:40:56;;;;;;;170.70;161.47;;;12.40;99.90;;;;;;5003811;28;20194;-81
2022/01/02 03:43:22;;;;;;;174.17;164.60;;;12.40;99.90;;;;;;4986608;28;20209;-79
2022/01/02 03:45:47;;;;;;;181.23;171.13;;;12.30;99.90;;;;;;5006297;28;20216;-81
2022/01/02 03:48:14;;;;;;;185.97;175.33;;;12.30;99.90;;;;;;5005281;28;20224;-79
2022/01/02 03:50:39;;;;;;;194.77;183.70;;;12.30;99.90;;;;;;4987902;28;20282;-80
2022/01/02 03:53:06;;;;;;;197.20;186.07;;;12.30;99.90;;;;;;4987608;28;20347;-79
2022/01/02 03:55:33;;;;;;;197.17;186.47;;;12.30;99.90;;;;;;5021982;28;20730;-80
2022/01/02 03:57:59;;;;;;;203.10;192.20;;;12.30;99.90;;;;;;5022860;28;20292;-80
2022/01/02 04:00:25;;;;;;;218.63;206.47;;;12.20;99.90;;;;;;4986982;28;20283;-80
2022/01/02 04:02:50;;;;;;;230.73;218.13;;;12.20;99.90;;;;;;5003893;28;20210;-79
2022/01/02 04:05:16;;;;;;;240.90;228.00;;;12.20;99.90;;;;;;4997516;28;20200;-79
2022/01/02 04:07:43;;;;;;;252.90;238.63;;;12.20;99.90;;;;;;5018849;28;20209;-80
2022/01/02 04:10:12;;;;;;;248.67;234.73;;;12.20;99.90;;;;;;5004105;28;20193;-80
2022/01/02 04:12:38;;;;;;;250.90;237.17;;;12.20;99.90;;;;;;5011445;28;20387;-80
2022/01/02 04:15:07;;;;;;;241.07;227.87;;;12.20;99.90;;;;;;5004644;28;20195;-80
2022/01/02 04:17:33;;;;;;;254.10;240.70;;;12.20;99.90;;;;;;5002194;28;20202;-81
2022/01/02 04:20:00;;;;;;;278.80;263.07;;;12.20;99.90;;;;;;5003376;28;20662;-79
2022/01/02 04:22:26;;;;;;;282.53;266.03;;;12.20;99.90;;;;;;5002891;28;20269;-79
2022/01/02 04:24:51;;;;;;;306.53;287.90;;;12.10;99.90;;;;;;5001630;28;20188;-80
2022/01/02 04:27:19;;;;;;;317.00;297.13;;;12.10;99.90;;;;;;5005132;28;20238;-79
2022/01/02 04:29:45;;;;;;;325.17;304.67;;;12.10;99.90;;;;;;5005156;28;20253;-80
2022/01/02 04:32:11;;;;;;;344.20;321.63;;;12.00;99.90;;;;;;4995525;28;20196;-81
2022/01/02 04:34:37;;;;;;;355.07;331.03;;;11.90;99.90;;;;;;5006172;28;20280;-79
2022/01/02 04:37:04;;;;;;;362.30;337.50;;;11.90;99.90;;;;;;5002916;28;20287;-80
2022/01/02 04:39:34;;;;;;;368.70;342.77;;;11.90;99.90;;;;;;4988970;28;20638;-80
2022/01/02 04:42:00;;;;;;;382.97;355.97;;;11.90;99.90;;;;;;5023337;28;20275;-79
2022/01/02 04:44:27;;;;;;;472.80;437.90;;;11.90;99.90;;;;;;5005990;28;20204;-80
2022/01/02 04:46:53;;;;;;;521.07;482.57;;;11.80;99.90;;;;;;5007076;28;20305;-80
2022/01/02 04:49:19;;;;;;;588.77;543.67;;;11.80;99.90;;;;;;4990427;28;20457;-78
2022/01/02 04:51:44;;;;;;;584.73;540.40;;;11.80;99.90;;;;;;5022466;28;20192;-79
2022/01/02 04:54:10;;;;;;;593.80;548.60;;;11.70;99.90;;;;;;5006321;28;20203;-79
2022/01/02 04:56:36;;;;;;;590.93;545.87;;;11.70;99.90;;;;;;5010996;28;20603;-80
2022/01/02 04:59:02;;;;;;;584.03;539.50;;;11.70;99.90;;;;;;4989224;28;20181;-79
2022/01/02 05:01:28;;;;;;;588.50;543.37;;;11.70;99.90;;;;;;4990559;28;20204;-79
2022/01/02 05:03:54;;;;;;;572.53;529.10;;;11.70;99.90;;;;;;5025718;28;20696;-80
2022/01/02 05:06:20;;;;;;;546.13;504.50;;;11.70;99.90;;;;;;4987248;28;20264;-80
2022/01/02 05:08:46;;;;;;;520.63;481.17;;;11.70;99.90;;;;;;5002526;28;20308;-79
2022/01/02 05:11:13;;;;;;;502.10;464.20;;;11.80;99.90;;;;;;4987919;28;20188;-80
2022/01/02 05:13:40;;;;;;;476.90;440.80;;;11.80;99.90;;;;;;4987449;28;20204;-79
2022/01/02 05:16:06;;;;;;;474.23;438.43;;;11.90;99.90;;;;;;5002447;28;20278;-80
2022/01/02 05:18:32;;;;;;;395.83;367.63;;;11.90;99.90;;;;;;5007106;28;20245;-80
2022/01/02 05:20:58;;;;;;;391.80;364.33;;;12.00;99.90;;;;;;4987958;28;20197;-79
2022/01/02 05:23:24;;;;;;;393.80;366.47;;;12.00;99.90;;;;;;5004903;28;20302;-79
2022/01/02 05:25:50;;;;;;;390.67;363.90;;;12.10;99.90;;;;;;5002103;28;20193;-80
2022/01/02 05:28:16;;;;;;;387.90;361.10;;;12.10;99.90;;;;;;4987001;28;20591;-80
2022/01/02 05:30:42;;;;;;;380.47;353.83;;;12.10;99.90;;;;;;4987878;28;20301;-79
2022/01/02 05:33:08;;;;;;;378.27;351.87;;;12.10;99.90;;;;;;5003924;28;20706;-80
2022/01/02 05:35:34;;;;;;;374.00;348.43;;;12.20;99.90;;;;;;4987840;28;20259;-80
2022/01/02 05:38:04;;;;;;;366.33;341.00;;;12.20;99.90;;;;;;5006398;28;20228;-80
2022/01/02 05:40:32;;;;;;;365.67;341.10;;;12.20;99.90;;;;;;5005088;28;20277;-79
2022/01/02 05:43:07;;;;;;;357.57;333.80;;;12.20;99.90;;;;;;5002084;28;20688;-79
2022/01/02 05:45:33;;;;;;;352.67;329.23;;;12.20;99.90;;;;;;5004895;28;20202;-81
2022/01/02 05:48:01;;;;;;;354.40;331.33;;;12.30;99.90;;;;;;4985035;28;20324;-78
2022/01/02 05:50:26;;;;;;;346.37;323.77;;;12.20;99.90;;;;;;5005661;28;20227;-80
2022/01/02 05:52:52;;;;;;;340.97;319.30;;;12.20;99.90;;;;;;5004348;28;20220;-80
2022/01/02 05:55:18;;;;;;;342.63;320.53;;;12.20;99.90;;;;;;4978393;28;20192;-79
2022/01/02 05:57:43;;;;;;;344.10;322.13;;;12.10;99.90;;;;;;4982910;28;20280;-79
2022/01/02 06:00:10;;;;;;;337.27;316.17;;;12.10;99.90;;;;;;4983198;28;20201;-79
2022/01/02 06:02:36;;;;;;;332.83;312.10;;;12.10;99.90;;;;;;4984964;28;20198;-80
2022/01/02 06:05:03;;;;;;;328.40;307.63;;;12.10;99.90;;;;;;5003459;28;20205;-79
2022/01/02 06:07:31;;;;;;;323.27;303.03;;;12.10;99.90;;;;;;5002114;28;20221;-80
2022/01/02 06:09:57;;;;;;;312.67;293.50;;;12.10;99.90;;;;;;5024511;28;20238;-80
2022/01/02 06:12:23;;;;;;;304.00;285.67;;;12.10;99.90;;;;;;5003951;28;20234;-80
2022/01/02 06:14:49;;;;;;;294.07;276.07;;;12.10;99.90;;;;;;5022977;28;20251;-80
2022/01/02 06:17:15;;;;;;;293.40;275.63;;;12.10;99.90;;;;;;5002109;28;20196;-79
2022/01/02 06:19:41;;;;;;;287.50;270.40;;;12.10;99.90;;;;;;5004650;28;20900;-80
2022/01/02 06:22:07;;;;;;;278.13;261.57;;;12.10;99.90;;;;;;4988520;28;20190;-79
2022/01/02 06:24:32;;;;;;;284.10;267.20;;;12.10;99.90;;;;;;4990527;28;20207;-80
2022/01/02 06:26:58;;;;;;;274.23;258.57;;;12.20;99.90;;;;;;4971883;28;20788;-80
2022/01/02 06:29:24;;;;;;;269.23;253.53;;;12.20;99.90;;;;;;5004465;28;20189;-80
2022/01/02 06:31:49;;;;;;;262.27;247.17;;;12.20;99.90;;;;;;4989148;28;20197;-80
2022/01/02 06:34:15;;;;;;;247.50;233.00;;;12.20;99.90;;;;;;5020979;28;20204;-79
2022/01/02 06:36:41;;;;;;;251.03;236.50;;;12.20;99.90;;;;;;4971932;28;20236;-80
2022/01/02 06:39:06;;;;;;;249.53;235.30;;;12.30;99.90;;;;;;5005938;28;20192;-80
2022/01/02 06:41:32;;;;;;;246.20;232.47;;;12.30;99.90;;;;;;4991375;28;20195;-80
2022/01/02 06:43:58;;;;;;;243.77;229.73;;;12.30;99.90;;;;;;5004261;28;20232;-80
2022/01/02 06:46:23;;;;;;;237.60;224.63;;;12.30;99.90;;;;;;5005856;28;20764;-81
2022/01/02 06:48:49;;;;;;;235.63;222.43;;;12.40;99.90;;;;;;4973022;28;20209;-80
2022/01/02 06:51:15;;;;;;;232.40;219.47;;;12.40;99.90;;;;;;5020142;28;20205;-80
2022/01/02 06:53:40;;;;;;;223.67;211.67;;;12.40;99.90;;;;;;5022813;28;20673;-80
2022/01/02 06:56:06;;;;;;;204.60;192.97;;;12.40;99.90;;;;;;5002759;28;20196;-80
2022/01/02 06:58:37;;;;;;;198.03;187.67;;;12.40;99.90;;;;;;5019389;28;20213;-79
2022/01/02 07:01:03;;;;;;;174.83;164.97;;;12.40;99.90;;;;;;4989505;28;20216;-81
2022/01/02 07:03:29;;;;;;;165.37;156.53;;;12.40;99.90;;;;;;5003274;28;20224;-81
2022/01/02 07:05:55;;;;;;;164.13;155.53;;;12.40;99.90;;;;;;4986227;28;20281;-79
2022/01/02 07:08:21;;;;;;;269.13;255.20;;;12.40;99.90;;;;;;4987876;28;20212;-80
2022/01/02 07:10:46;;;;;;;320.00;302.00;;;12.20;99.90;;;;;;4988554;28;20273;-80
2022/01/02 07:13:12;;;;;;;351.30;329.93;;;12.10;99.90;;;;;;4971620;28;20201;-79
2022/01/02 07:15:37;;;;;;;387.57;362.87;;;11.90;99.90;;;;;;4987257;28;20187;-79
2022/01/02 07:18:03;;;;;;;473.73;440.33;;;11.90;99.90;;;;;;4992912;28;20236;-80
2022/01/02 07:20:29;;;;;;;417.07;388.90;;;11.80;99.90;;;;;;5022966;28;20215;-78
2022/01/02 07:22:54;;;;;;;409.37;381.47;;;11.80;99.90;;;;;;5005257;28;20193;-80
2022/01/02 07:25:20;;;;;;;409.03;382.83;;;11.70;99.90;;;;;;5005673;28;20197;-80
2022/01/02 07:27:46;;;;;;;386.17;360.47;;;11.70;99.90;;;;;;4992435;28;20211;-81
2022/01/02 07:30:11;;;;;;;358.67;335.67;;;11.80;99.90;;;;;;4987998;28;20243;-80
2022/01/02 07:32:39;;;;;;;348.63;326.37;;;11.80;99.90;;;;;;4989862;28;20219;-78
2022/01/02 07:35:06;;;;;;;342.70;321.20;;;11.80;99.90;;;;;;4988517;28;20189;-80
2022/01/02 07:37:33;;;;;;;333.97;312.97;;;11.80;99.90;;;;;;5003803;28;20191;-80
2022/01/02 07:39:59;;;;;;;328.43;308.10;;;11.90;99.90;;;;;;4986513;28;21038;-80
2022/01/02 07:42:25;;;;;;;327.43;307.10;;;11.90;99.90;;;;;;4987794;28;20236;-80
2022/01/02 07:44:51;;;;;;;324.00;304.20;;;12.00;99.90;;;;;;5022201;28;20817;-80
2022/01/02 07:47:16;;;;;;;323.33;303.77;;;12.00;99.90;;;;;;5003284;28;20216;-79
2022/01/02 07:49:42;;;;;;;325.37;305.53;;;12.00;99.90;;;;;;5021901;28;20203;-82
2022/01/02 07:52:08;;;;;;;324.47;305.33;;;12.00;99.90;;;;;;5006781;28;20187;-80
2022/01/02 07:54:34;;;;;;;317.73;298.20;;;12.00;99.90;;;;;;4989685;28;20206;-80
2022/01/02 07:56:59;;;;;;;330.57;310.97;;;12.10;99.90;;;;;;4988996;28;20226;-79
2022/01/02 07:59:25;;;;;;;322.87;303.93;;;12.20;99.90;;;;;;5019355;28;20207;-80
2022/01/02 08:01:51;;;;;;;323.00;303.93;;;12.20;99.90;;;;;;4975377;28;20196;-79
2022/01/02 08:04:18;;;;;;;317.23;298.43;;;12.20;99.90;;;;;;4972648;28;20196;-80
2022/01/02 08:06:44;;;;;;;316.70;297.80;;;12.20;99.90;;;;;;4986945;28;20236;-81
2022/01/02 08:09:10;;;;;;;309.77;291.47;;;12.20;99.90;;;;;;4987297;28;20287;-80
2022/01/02 08:11:36;;;;;;;314.87;296.50;;;12.30;99.90;;;;;;4970020;28;20273;-81
2022/01/02 08:14:01;;;;;;;301.33;283.80;;;12.20;99.90;;;;;;5023232;28;20201;-79
2022/01/02 08:16:27;;;;;;;302.90;285.20;;;12.20;99.90;;;;;;5008450;28;20223;-80
2022/01/02 08:18:53;;;;;;;292.57;275.40;;;12.20;99.90;;;;;;5007273;28;20222;-80
2022/01/02 08:21:18;;;;;;;294.83;277.63;;;12.20;99.90;;;;;;4976039;28;20279;-81
2022/01/02 08:23:44;;;;;;;282.10;265.87;;;12.20;99.90;;;;;;5009964;28;20291;-80
2022/01/02 08:26:10;;;;;;;287.80;271.00;;;12.10;99.90;;;;;;5015478;28;20200;-80
2022/01/02 08:28:35;;;;;;;283.07;266.70;;;12.10;99.90;;;;;;4989777;28;20222;-80
2022/01/02 08:31:01;;;;;;;277.97;262.30;;;12.00;99.90;;;;;;5006845;28;20193;-80
2022/01/02 08:33:27;;;;;;;265.33;249.97;;;12.10;99.90;;;;;;5022667;28;20200;-81
2022/01/02 08:35:53;;;;;;;262.97;248.57;;;12.10;99.90;;;;;;5005662;28;20202;-80
2022/01/02 08:38:18;;;;;;;257.20;242.93;;;12.10;99.90;;;;;;5006946;28;20197;-80
2022/01/02 08:40:44;;;;;;;263.10;248.27;;;12.10;99.90;;;;;;5013925;28;20177;-80
2022/01/02 08:43:10;;;;;;;261.20;246.47;;;12.10;99.90;;;;;;5008236;28;20266;-81
2022/01/02 08:45:38;;;;;;;251.03;237.23;;;12.10;99.90;;;;;;5009164;28;20234;-80
2022/01/02 08:48:04;;;;;;;242.03;228.37;;;12.10;99.90;;;;;;4990935;28;20797;-81
2022/01/02 08:50:30;;;;;;;260.90;246.80;;;12.20;99.90;;;;;;5007241;28;20191;-80
2022/01/02 08:52:56;;;;;;;254.33;240.63;;;12.10;99.90;;;;;;5007169;28;20184;-81
2022/01/02 08:55:21;;;;;;;239.67;226.73;;;12.10;99.90;;;;;;4999133;28;20280;-79
2022/01/02 08:57:47;;;;;;;246.47;233.43;;;12.10;99.90;;;;;;4981760;28;20600;-79
2022/01/02 09:00:13;;;;;;;238.10;225.33;;;12.00;99.90;;;;;;4988717;28;20325;-79
2022/01/02 09:02:39;;;;;;;221.83;209.97;;;12.10;99.90;;;;;;4993506;28;20199;-79
2022/01/02 09:05:04;;;;;;;228.90;217.00;;;12.00;99.90;;;;;;5005974;28;20187;-80
2022/01/02 09:07:30;;;;;;;223.30;211.50;;;12.00;99.90;;;;;;5005811;28;20249;-79
2022/01/02 09:09:56;;;;;;;209.37;198.67;;;12.00;99.90;;;;;;4990686;28;20191;-80
2022/01/02 09:12:22;;;;;;;187.00;177.23;;;12.00;99.90;;;;;;5008677;28;20203;-80
2022/01/02 09:14:47;;;;;;;169.97;161.27;;;12.00;99.90;;;;;;5022613;28;20188;-79
2022/01/02 09:17:14;;;;;;;141.67;134.20;;;12.00;99.90;;;;;;5008544;28;20198;-81
2022/01/02 09:19:39;;;;;;;133.10;125.93;;;12.10;99.90;;;;;;5023949;28;20286;-79
2022/01/02 09:22:05;;;;;;;132.07;124.97;;;12.10;99.90;;;;;;4989781;28;20301;-80
2022/01/02 09:24:31;;;;;;;118.80;112.30;;;12.10;99.90;;;;;;4990732;28;20559;-81
2022/01/02 09:26:57;;;;;;;109.17;103.40;;;12.10;99.90;;;;;;5006184;28;20244;-79
2022/01/02 09:29:23;;;;;;;102.93;97.33;;;12.20;99.90;;;;;;5007344;28;20205;-81
2022/01/02 09:31:49;;;;;;;94.00;89.13;;;12.20;99.90;;;;;;4978051;28;20313;-80
2022/01/02 09:34:15;;;;;;;92.23;87.23;;;12.30;99.90;;;;;;5007335;28;20280;-80
2022/01/02 09:36:40;;;;;;;86.90;82.40;;;12.30;99.90;;;;;;4976087;28;21618;-81
2022/01/02 09:39:06;;;;;;;81.47;76.97;;;12.40;99.90;;;;;;4991478;28;20197;-79
2022/01/02 09:41:32;;;;;;;80.17;75.67;;;12.40;99.90;;;;;;4991735;28;20211;-78
2022/01/02 09:43:59;;;;;;;79.30;74.77;;;12.40;99.90;;;;;;5009236;28;20247;-80
2022/01/02 09:46:27;;;;;;;75.87;71.47;;;12.40;99.90;;;;;;5024152;28;20198;-81
2022/01/02 09:48:54;;;;;;;75.27;70.97;;;12.30;99.90;;;;;;5024527;28;20595;-81
2022/01/02 09:51:24;;;;;;;69.00;64.93;;;12.30;99.90;;;;;;5004908;28;20686;-80
2022/01/02 09:53:50;;;;;;;69.07;64.77;;;12.40;99.90;;;;;;5023109;28;20188;-79
2022/01/02 09:56:16;;;;;;;65.10;61.20;;;12.50;99.90;;;;;;5006201;28;20205;-80
2022/01/02 09:58:43;;;;;;;62.60;58.77;;;12.60;99.90;;;;;;5005831;28;20215;-81
2022/01/02 10:01:29;;;;;;;59.57;55.73;;;12.70;99.90;;;;;;5009468;28;20304;-81
2022/01/02 10:03:57;;;;;;;58.77;55.30;;;12.70;99.90;;;;;;5006280;28;20201;-81
2022/01/02 10:06:39;;;;;;;56.57;52.87;;;12.70;99.90;;;;;;5025721;28;20765;-81
2022/01/02 10:09:04;;;;;;;54.30;50.87;;;12.60;99.90;;;;;;5025379;28;20220;-82
2022/01/02 10:11:32;;;;;;;50.57;47.67;;;12.60;99.90;;;;;;4990920;28;20205;-80
2022/01/02 10:14:02;;;;;;;52.30;48.90;;;12.50;99.90;;;;;;5008850;28;20186;-80
2022/01/02 10:16:38;;;;;;;50.37;47.43;;;12.60;99.90;;;;;;5009510;28;20190;-81
2022/01/02 10:19:18;;;;;;;53.07;49.33;;;12.60;99.90;;;;;;5011412;28;20195;-81
2022/01/02 10:21:56;;;;;;;50.47;47.07;;;12.60;99.90;;;;;;5007346;28;20184;-80
2022/01/02 10:24:27;;;;;;;50.00;46.83;;;12.50;99.90;;;;;;5010836;28;20196;-81
2022/01/02 10:27:14;;;;;;;51.23;47.73;;;12.50;99.90;;;;;;5012731;28;20328;-82
2022/01/02 10:29:53;;;;;;;52.57;49.30;;;12.50;99.90;;;;;;5023989;28;20197;-81
2022/01/02 10:32:30;;;;;;;50.87;47.47;;;12.60;99.90;;;;;;5012464;28;20213;-79
2022/01/02 10:35:18;;;;;;;52.17;48.40;;;12.60;99.90;;;;;;5024704;28;21021;-79
2022/01/02 10:37:47;;;;;;;54.50;50.70;;;12.60;99.90;;;;;;5008397;28;20551;-80
2022/01/02 10:40:24;;;;;;;53.97;50.40;;;12.60;99.90;;;;;;5031272;28;20208;-80
2022/01/02 10:42:49;;;;;;;55.93;52.33;;;12.60;99.90;;;;;;5021843;28;20206;-80
2022/01/02 10:45:35;;;;;;;55.70;52.03;;;12.70;99.90;;;;;;4989679;28;20239;-80
2022/01/02 10:48:03;;;;;;;55.60;51.53;;;12.70;99.90;;;;;;5004148;28;20307;-80
2022/01/02 10:50:29;;;;;;;55.13;51.20;;;12.70;99.90;;;;;;5020703;28;20193;-79
2022/01/02 10:52:54;;;;;;;53.40;48.93;;;12.70;99.90;;;;;;5017662;28;20246;-80
2022/01/02 10:55:30;;;;;;;55.07;51.03;;;12.80;99.90;;;;;;4987462;28;20200;-80
2022/01/02 10:57:57;;;;;;;55.37;51.20;;;12.90;99.90;;;;;;4977844;28;20632;-79
2022/01/02 11:00:27;;;;;;;54.27;50.33;;;12.90;99.90;;;;;;4990222;28;20207;-80
2022/01/02 11:02:54;;;;;;;50.43;46.57;;;12.90;99.90;;;;;;5022467;28;20193;-80
2022/01/02 11:05:22;;;;;;;50.50;45.97;;;12.90;99.90;;;;;;5005325;28;20248;-80
2022/01/02 11:07:58;;;;;;;46.23;42.73;;;13.00;99.90;;;;;;5008347;28;20211;-82
2022/01/02 11:10:25;;;;;;;45.03;41.63;;;13.00;99.90;;;;;;4999413;28;20659;-80
2022/01/02 11:12:53;;;;;;;46.53;42.37;;;13.00;99.90;;;;;;5027564;28;20212;-81
2022/01/02 11:15:21;;;;;;;46.27;41.77;;;13.00;99.90;;;;;;5014522;28;20192;-82
2022/01/02 11:17:47;;;;;;;44.30;39.90;;;13.00;99.90;;;;;;5016743;28;20202;-83
2022/01/02 11:20:21;;;;;;;44.47;40.70;;;13.00;99.90;;;;;;4994467;28;20193;-82
2022/01/02 11:23:06;;;;;;;42.67;38.90;;;13.00;99.90;;;;;;5013960;28;20190;-82
2022/01/02 11:26:03;;;;;;;46.53;42.40;;;13.00;99.90;;;;;;5011752;28;20209;-81
2022/01/02 11:28:48;;;;;;;44.43;41.03;;;13.00;99.90;;;;;;5010787;28;20217;-81
2022/01/02 11:31:48;;;;;;;47.70;42.97;;;12.90;99.90;;;;;;5026211;28;20196;-83
2022/01/02 11:34:24;;;;;;;48.60;44.00;;;12.90;99.90;;;;;;4949427;28;20206;-81
2022/01/02 11:36:51;;;;;;;47.47;43.63;;;12.90;99.90;;;;;;5023217;28;20196;-81
2022/01/02 11:39:16;;;;;;;46.77;43.03;;;12.80;99.90;;;;;;5006443;28;20278;-81
2022/01/02 11:41:48;;;;;;;48.70;44.57;;;12.90;99.90;;;;;;4988396;28;20309;-82
2022/01/02 11:44:18;;;;;;;49.93;45.20;;;12.80;99.90;;;;;;5004383;28;20193;-80
2022/01/02 11:46:57;;;;;;;49.10;44.77;;;12.80;99.90;;;;;;5020272;28;20197;-79
2022/01/02 11:49:40;;;;;;;52.20;48.10;;;12.80;99.90;;;;;;5006298;28;20232;-80
2022/01/02 11:52:12;;;;;;;54.57;49.53;;;12.80;99.90;;;;;;4994443;28;20217;-80
2022/01/02 11:54:40;;;;;;;59.67;54.27;;;12.70;99.90;;;;;;5006625;28;20669;-81
2022/01/02 11:57:12;;;;;;;59.83;54.80;;;12.70;99.90;;;;;;5021472;28;20262;-81
2022/01/02 11:59:42;;;;;;;61.37;56.70;;;12.60;99.90;;;;;;5019877;28;20189;-80
2022/01/02 12:02:10;;;;;;;64.30;59.13;;;12.60;99.90;;;;;;5021509;28;20598;-80
2022/01/02 12:07:35;;;;;;;71.73;65.77;;;12.50;99.90;;;;;;5021903;28;20281;-81
2022/01/02 12:12:57;;;;;;;76.97;71.30;;;12.50;99.90;;;;;;5019403;28;20295;-81
2022/01/02 12:15:46;;;;;;;77.37;72.13;;;12.50;99.90;;;;;;5019364;28;20217;-81
2022/01/02 12:18:23;;;;;;;74.83;69.00;;;12.60;99.90;;;;;;4994387;28;20197;-80
2022/01/02 12:21:00;;;;;;;77.33;71.13;;;12.60;99.90;;;;;;5023451;28;20193;-82
2022/01/02 12:23:35;;;;;;;73.87;68.13;;;12.60;99.90;;;;;;5023307;28;20202;-81
2022/01/02 12:26:02;;;;;;;70.93;65.23;;;12.60;99.90;;;;;;5022812;28;20188;-81
2022/01/02 12:28:39;;;;;;;65.53;60.67;;;12.60;99.90;;;;;;5006677;28;20209;-80
2022/01/02 12:31:05;;;;;;;63.27;58.73;;;12.60;99.90;;;;;;5023434;28;20190;-80
2022/01/02 12:33:31;;;;;;;63.43;57.80;;;12.60;99.90;;;;;;5004454;28;20219;-79